createdAt,value
2023-03-18T00:02:55.562Z,971.09
2023-03-18T00:07:55.426Z,971.10
2023-03-18T00:12:55.331Z,971.12
2023-03-18T00:17:55.314Z,971.11
2023-03-18T00:22:55.225Z,971.18
2023-03-18T00:27:56.012Z,971.22
2023-03-18T00:32:55.257Z,971.19
2023-03-18T00:37:55.032Z,971.22
2023-03-18T00:42:54.993Z,971.23
2023-03-18T00:47:54.963Z,971.23
2023-03-18T00:52:54.862Z,971.20
2023-03-18T00:57:54.814Z,971.20
2023-03-18T01:02:54.710Z,971.18
2023-03-18T01:07:54.682Z,971.22
2023-03-18T01:12:55.956Z,971.17
2023-03-18T01:17:54.566Z,971.22
2023-03-18T01:22:54.502Z,971.18
2023-03-18T01:27:54.433Z,971.21
2023-03-18T01:32:54.491Z,971.16
2023-03-18T01:37:54.315Z,971.19
2023-03-18T01:42:55.013Z,971.26
2023-03-18T01:47:54.158Z,971.32
2023-03-18T01:52:54.134Z,971.41
2023-03-18T01:57:54.070Z,971.45
2023-03-18T02:02:53.983Z,971.55
2023-03-18T02:07:53.960Z,971.52
2023-03-18T02:12:54.820Z,971.53
2023-03-18T02:17:53.846Z,971.56
2023-03-18T02:22:53.764Z,971.48
2023-03-18T02:27:53.711Z,971.55
2023-03-18T02:32:53.745Z,971.53
2023-03-18T02:37:53.561Z,971.54
2023-03-18T02:42:53.544Z,971.64
2023-03-18T02:47:53.450Z,971.66
2023-03-18T02:52:53.366Z,971.73
2023-03-18T02:57:53.326Z,971.74
2023-03-18T03:02:53.356Z,971.72
2023-03-18T03:07:53.172Z,971.70
2023-03-18T03:12:53.194Z,971.76
2023-03-18T03:17:53.116Z,971.77
2023-03-18T03:22:53.010Z,971.83
2023-03-18T03:27:52.944Z,971.87
2023-03-18T03:32:53.041Z,971.80
2023-03-18T03:37:52.880Z,971.90
2023-03-18T03:42:52.782Z,971.91
2023-03-18T03:47:52.722Z,972.01
2023-03-18T03:52:52.656Z,972.06
2023-03-18T03:57:52.597Z,972.02
2023-03-18T04:02:52.613Z,972.09
2023-03-18T04:07:52.526Z,972.08
2023-03-18T04:12:52.394Z,972.10
2023-03-18T04:17:52.329Z,972.16
2023-03-18T04:22:52.296Z,972.16
2023-03-18T04:27:52.238Z,972.06
2023-03-18T04:32:52.199Z,972.14
2023-03-18T04:37:52.117Z,972.18
2023-03-18T04:42:52.010Z,972.24
2023-03-18T04:47:52.018Z,972.27
2023-03-18T04:52:51.886Z,972.25
2023-03-18T04:57:51.837Z,972.36
2023-03-18T05:02:51.821Z,972.37
2023-03-18T05:07:51.704Z,972.37
2023-03-18T05:12:51.630Z,972.35
2023-03-18T05:17:51.614Z,972.33
2023-03-18T05:22:51.495Z,972.35
2023-03-18T05:27:51.476Z,972.36
2023-03-18T05:32:51.478Z,972.32
2023-03-18T05:37:51.342Z,972.30
2023-03-18T05:42:56.362Z,972.27
2023-03-18T05:47:52.201Z,972.37
2023-03-18T05:52:51.171Z,972.39
2023-03-18T05:57:51.105Z,972.38
2023-03-18T06:02:51.037Z,972.47
2023-03-18T06:07:51.000Z,972.46
2023-03-18T06:12:50.953Z,972.57
2023-03-18T06:17:50.958Z,972.57
2023-03-18T06:22:50.806Z,972.65
2023-03-18T06:27:50.774Z,972.62
2023-03-18T06:32:50.673Z,972.62
2023-03-18T06:37:50.589Z,972.58
2023-03-18T06:42:50.576Z,972.64
2023-03-18T06:47:50.467Z,972.61
2023-03-18T06:52:50.397Z,972.62
2023-03-18T06:57:50.399Z,972.69
2023-03-18T07:02:50.336Z,972.71
2023-03-18T07:07:50.265Z,972.67
2023-03-18T07:12:50.189Z,972.70
2023-03-18T07:17:50.116Z,972.63
2023-03-18T07:22:50.089Z,972.69
2023-03-18T07:27:50.006Z,972.67
2023-03-18T07:32:49.987Z,972.68
2023-03-18T07:37:49.951Z,972.73
2023-03-18T07:42:49.856Z,972.84
2023-03-18T07:47:49.785Z,972.86
2023-03-18T07:52:49.681Z,972.89
2023-03-18T07:57:49.647Z,972.86
2023-03-18T08:02:49.587Z,972.90
2023-03-18T08:07:49.530Z,972.92
2023-03-18T08:12:53.596Z,972.95
2023-03-18T08:17:49.402Z,972.90
2023-03-18T08:22:49.313Z,972.91
2023-03-18T08:27:49.306Z,972.98
2023-03-18T08:32:49.219Z,972.98
2023-03-18T08:37:49.125Z,973.00
2023-03-18T08:42:49.059Z,972.98
2023-03-18T08:47:48.984Z,972.95
2023-03-18T08:52:48.927Z,973.00
2023-03-18T08:57:48.860Z,973.00
2023-03-18T09:02:49.130Z,972.92
2023-03-18T09:07:48.758Z,972.89
2023-03-18T09:12:48.691Z,972.90
2023-03-18T09:18:03.892Z,972.93
2023-03-18T09:22:49.608Z,972.91
2023-03-18T09:27:48.465Z,972.96
2023-03-18T09:32:48.441Z,972.97
2023-03-18T09:37:48.380Z,972.89
2023-03-18T09:42:48.307Z,972.87
2023-03-18T09:47:48.207Z,972.89
2023-03-18T09:52:48.237Z,972.95
2023-03-18T09:57:48.126Z,972.98
2023-03-18T10:02:48.070Z,972.93
2023-03-18T10:07:47.992Z,972.90
2023-03-18T10:12:47.914Z,972.82
2023-03-18T10:17:47.852Z,972.83
2023-03-18T10:22:47.760Z,972.79
2023-03-18T10:27:47.741Z,972.76
2023-03-18T10:32:50.278Z,972.77
2023-03-18T10:37:47.612Z,972.77
2023-03-18T10:42:47.579Z,972.79
2023-03-18T10:47:47.508Z,972.82
2023-03-18T10:52:47.389Z,972.85
2023-03-18T10:57:47.368Z,972.85
2023-03-18T11:02:47.325Z,972.82
2023-03-18T11:07:47.207Z,972.80
2023-03-18T11:12:47.170Z,972.78
2023-03-18T11:17:47.128Z,972.81
2023-03-18T11:22:47.002Z,972.72
2023-03-18T11:27:46.977Z,972.63
2023-03-18T11:32:46.891Z,972.52
2023-03-18T11:37:46.874Z,972.51
2023-03-18T11:42:46.748Z,972.43
2023-03-18T11:47:46.703Z,972.37
2023-03-18T11:52:46.637Z,972.36
2023-03-18T11:57:46.601Z,972.26
2023-03-18T12:02:46.500Z,972.24
2023-03-18T12:07:46.458Z,972.17
2023-03-18T12:12:46.396Z,972.10
2023-03-18T12:17:46.337Z,972.13
2023-03-18T12:22:46.227Z,972.12
2023-03-18T12:27:46.198Z,972.08
2023-03-18T12:32:46.181Z,972.02
2023-03-18T12:37:46.067Z,971.97
2023-03-18T12:42:45.988Z,971.88
2023-03-18T12:47:45.924Z,971.77
2023-03-18T12:52:45.903Z,971.74
2023-03-18T12:57:45.811Z,971.72
2023-03-18T13:02:45.840Z,971.67
2023-03-18T13:07:45.678Z,971.61
2023-03-18T13:12:45.606Z,971.54
2023-03-18T13:17:45.565Z,971.53
2023-03-18T13:22:45.489Z,971.51
2023-03-18T13:27:45.418Z,971.44
2023-03-18T13:32:45.370Z,971.34
2023-03-18T13:37:45.293Z,971.27
2023-03-18T13:42:45.233Z,971.28
2023-03-18T13:47:45.203Z,971.30
2023-03-18T13:52:45.105Z,971.40
2023-03-18T13:57:45.053Z,971.37
2023-03-18T14:02:45.024Z,971.31
2023-03-18T14:07:44.892Z,971.35
2023-03-18T14:12:44.827Z,971.32
2023-03-18T14:17:44.790Z,971.39
2023-03-18T14:22:44.803Z,971.44
2023-03-18T14:27:44.681Z,971.29
2023-03-18T14:32:44.607Z,971.29
2023-03-18T14:37:44.585Z,971.20
2023-03-18T14:42:44.819Z,971.08
2023-03-18T14:47:44.408Z,971.11
2023-03-18T14:52:44.369Z,971.11
2023-03-18T14:57:44.269Z,970.96
2023-03-18T15:02:44.257Z,970.88
2023-03-18T15:07:44.163Z,970.93
2023-03-18T15:12:44.087Z,970.91
2023-03-18T15:17:44.013Z,970.97
2023-03-18T15:22:43.944Z,970.99
2023-03-18T15:27:43.926Z,970.97
2023-03-18T15:32:43.868Z,970.92
2023-03-18T15:37:43.770Z,970.90
2023-03-18T15:42:43.700Z,970.84
2023-03-18T15:47:43.642Z,970.88
2023-03-18T15:52:43.583Z,970.82
2023-03-18T15:57:43.510Z,970.86
2023-03-18T16:02:43.470Z,970.92
2023-03-18T16:07:43.398Z,970.91
2023-03-18T16:12:43.312Z,970.93
2023-03-18T16:17:43.244Z,970.96
2023-03-18T16:22:43.185Z,970.98
2023-03-18T16:27:43.136Z,970.96
2023-03-18T16:32:43.112Z,971.03
2023-03-18T16:37:43.024Z,971.08
2023-03-18T16:42:42.926Z,971.09
2023-03-18T16:47:42.852Z,971.09
2023-03-18T16:52:42.797Z,971.16
2023-03-18T16:57:42.715Z,971.23
2023-03-18T17:02:42.668Z,971.28
2023-03-18T17:07:42.603Z,971.26
2023-03-18T17:12:42.580Z,971.28
2023-03-18T17:17:42.469Z,971.37
2023-03-18T17:22:42.411Z,971.45
2023-03-18T17:27:42.352Z,971.43
2023-03-18T17:32:42.313Z,971.52
2023-03-18T17:37:42.235Z,971.58
2023-03-18T17:42:42.206Z,971.61
2023-03-18T17:47:42.084Z,971.54
2023-03-18T17:52:42.076Z,971.53
2023-03-18T17:57:41.981Z,971.45
2023-03-18T18:02:41.987Z,971.51
2023-03-18T18:07:41.851Z,971.46
2023-03-18T18:12:41.817Z,971.41
2023-03-18T18:17:41.730Z,971.41
2023-03-18T18:22:41.665Z,971.39
2023-03-18T18:27:41.584Z,971.45
2023-03-18T18:32:41.605Z,971.43
2023-03-18T18:37:41.461Z,971.52
2023-03-18T18:42:42.063Z,971.59
2023-03-18T18:47:41.356Z,971.59
2023-03-18T18:52:41.269Z,971.70
2023-03-18T18:57:41.266Z,971.62
2023-03-18T19:02:41.150Z,971.64
2023-03-18T19:07:41.121Z,971.54
2023-03-18T19:12:41.053Z,971.58
2023-03-18T19:17:40.977Z,971.65
2023-03-18T19:22:41.860Z,971.75
2023-03-18T19:27:40.858Z,971.80
2023-03-18T19:32:40.787Z,971.73
2023-03-18T19:37:40.719Z,971.65
2023-03-18T19:42:40.627Z,971.61
2023-03-18T19:47:40.567Z,971.65
2023-03-18T19:52:40.529Z,971.69
2023-03-18T19:57:40.438Z,971.66
2023-03-18T20:02:40.423Z,971.66
2023-03-18T20:07:40.305Z,971.71
2023-03-18T20:12:40.338Z,971.80
2023-03-18T20:17:40.226Z,971.86
2023-03-18T20:22:40.168Z,971.83
2023-03-18T20:27:40.149Z,971.84
2023-03-18T20:32:40.081Z,971.85
2023-03-18T20:37:39.988Z,971.92
2023-03-18T20:42:39.904Z,971.88
2023-03-18T20:47:39.870Z,971.89
2023-03-18T20:52:39.760Z,971.90
2023-03-18T20:57:39.721Z,971.98
2023-03-18T21:02:39.664Z,971.94
2023-03-18T21:07:39.603Z,971.93
2023-03-18T21:12:39.506Z,972.02
2023-03-18T21:17:40.194Z,972.06
2023-03-18T21:22:39.361Z,972.05
2023-03-18T21:27:39.340Z,972.09
2023-03-18T21:32:39.257Z,972.01
2023-03-18T21:37:39.206Z,972.11
2023-03-18T21:42:39.118Z,972.02
2023-03-18T21:47:39.041Z,972.02
2023-03-18T21:52:38.958Z,971.99
2023-03-18T21:57:38.921Z,972.01
2023-03-18T22:02:38.841Z,972.02
2023-03-18T22:07:38.712Z,972.00
2023-03-18T22:12:38.677Z,971.98
2023-03-18T22:17:39.078Z,972.03
2023-03-18T22:22:38.536Z,971.94
2023-03-18T22:27:38.492Z,971.93
2023-03-18T22:32:38.506Z,971.98
2023-03-18T22:37:38.324Z,972.02
2023-03-18T22:42:38.264Z,972.11
2023-03-18T22:47:38.231Z,972.16
2023-03-18T22:52:38.154Z,972.17
2023-03-18T22:57:38.086Z,972.13
2023-03-18T23:02:38.076Z,972.19
2023-03-18T23:07:39.322Z,972.24
2023-03-18T23:12:37.913Z,972.23
2023-03-18T23:17:37.807Z,972.26
2023-03-18T23:22:37.771Z,972.22
2023-03-18T23:27:37.725Z,972.21
2023-03-18T23:32:37.636Z,972.20
2023-03-18T23:37:37.625Z,972.22
2023-03-18T23:42:37.518Z,972.23
2023-03-18T23:47:37.462Z,972.29
2023-03-18T23:52:37.406Z,972.26
2023-03-18T23:57:37.326Z,972.30
